Time;durP1;ratioP1;P1;durP2;ratioP2;P2;SDS_P1;SDS_P2;PMS_P1;PMS_P2;Temp;Humidity;BMP_temperature;BMP_pressure;BME280_temperature;BME280_humidity;BME280_pressure;Samples;Min_cycle;Max_cycle;Signal;HPM_P1;HPM_P2
2022/04/05 00:00:24;;;;;;;;;;;;;;;-147.50;100.00;69404.13;4973792;28;855;-59
2022/04/05 00:02:51;;;;;;;;;;;;;;;-147.50;100.00;69404.13;4973645;28;815;-59
2022/04/05 00:05:18;;;;;;;;;;;;;;;-147.50;100.00;69404.13;4973543;28;851;-59
2022/04/05 00:07:44;;;;;;;;;;;;;;;-147.50;100.00;69404.13;4973400;28;1968;-59
2022/04/05 00:10:11;;;;;;;;;;;;;;;-147.50;100.00;69404.13;4973404;28;908;-59
2022/04/05 00:12:38;;;;;;;;;;;;;;;-147.50;100.00;69404.13;4973294;28;879;-59
2022/04/05 00:15:05;;;;;;;;;;;;;;;-147.50;100.00;69404.13;4973406;28;803;-59
2022/04/05 00:17:32;;;;;;;;;;;;;;;-147.50;100.00;69404.13;4973360;28;839;-59
2022/04/05 00:19:59;;;;;;;;;;;;;;;-147.50;100.00;69404.13;4973267;28;865;-59
2022/04/05 00:22:25;;;;;;;;;;;;;;;-147.50;100.00;69404.13;4973281;28;859;-59
2022/04/05 00:24:51;;;;;;;;;;;;;;;-147.50;100.00;69404.13;4973281;28;918;-59
2022/04/05 00:27:18;;;;;;;;;;;;;;;-147.50;100.00;69404.13;4972644;28;1902;-59
2022/04/05 00:29:45;;;;;;;;;;;;;;;-147.50;100.00;69404.13;4973222;28;874;-59
2022/04/05 00:32:12;;;;;;;;;;;;;;;-147.50;100.00;69404.13;4973131;28;835;-59
2022/04/05 00:34:39;;;;;;;;;;;;;;;-147.50;100.00;69404.13;4973293;28;871;-59
2022/04/05 00:37:06;;;;;;;;;;;;;;;-147.50;100.00;69404.13;4973004;28;815;-59
2022/04/05 00:39:33;;;;;;;;;;;;;;;-147.50;100.00;69404.13;4972906;28;907;-59
2022/04/05 00:42:00;;;;;;;;;;;;;;;-147.50;100.00;69404.13;4973178;28;831;-59
2022/04/05 00:44:26;;;;;;;;;;;;;;;-147.50;100.00;69404.13;4973006;28;796;-59
2022/04/05 00:46:54;;;;;;;;;;;;;;;-147.50;100.00;69404.13;4972832;28;1887;-59
2022/04/05 00:49:26;;;;;;;;;;;;;;;-147.50;100.00;69404.13;4972894;28;831;-59
2022/04/05 00:51:53;;;;;;;;;;;;;;;-147.50;100.00;69404.13;4972906;28;821;-59
2022/04/05 00:54:22;;;;;;;;;;;;;;;-147.50;100.00;69404.13;4973010;28;854;-58
2022/04/05 00:56:49;;;;;;;;;;;;;;;-147.50;100.00;69404.13;4973126;28;827;-59
2022/04/05 00:59:17;;;;;;;;;;;;;;;-147.50;100.00;69404.13;4972808;28;839;-59
2022/04/05 01:01:45;;;;;;;;;;;;;;;-147.50;100.00;69404.13;4972634;28;999;-59
2022/04/05 01:04:11;;;;;;;;;;;;;;;-147.50;100.00;69404.13;4955665;28;856;-59
2022/04/05 01:06:43;;;;;;;;;;;;;;;-147.50;100.00;69404.13;4972897;28;1943;-59
2022/04/05 01:09:10;;;;;;;;;;;;;;;-147.50;100.00;69404.13;4972789;28;816;-59
2022/04/05 01:11:37;;;;;;;;;;;;;;;-147.50;100.00;69404.13;4972647;28;816;-59
2022/04/05 01:14:04;;;;;;;;;;;;;;;-147.50;100.00;69404.13;4972660;28;861;-59
2022/04/05 01:16:31;;;;;;;;;;;;;;;-147.50;100.00;69404.13;4972590;28;843;-59
2022/04/05 01:18:58;;;;;;;;;;;;;;;-147.50;100.00;69404.13;4972537;28;883;-59
2022/04/05 01:21:24;;;;;;;;;;;;;;;-147.50;100.00;69404.13;4972656;28;804;-59
2022/04/05 01:24:06;;;;;;;;;;;;;;;-147.50;100.00;69404.13;4972940;28;796;-59
2022/04/05 01:26:42;;;;;;;;;;;;;;;-147.50;100.00;69404.13;4972463;28;1969;-59
2022/04/05 01:29:10;;;;;;;;;;;;;;;-147.50;100.00;69404.13;4972592;28;893;-59
2022/04/05 01:32:01;;;;;;;;;;;;;;;-147.50;100.00;69404.13;4972669;28;819;-59
2022/04/05 01:34:29;;;;;;;;;;;;;;;-147.50;100.00;69404.13;4960659;28;1119;-59
2022/04/05 01:36:57;;;;;;;;;;;;;;;-147.50;100.00;69404.13;4972354;28;945;-59
2022/04/05 01:39:26;;;;;;;;;;;;;;;-147.50;100.00;69404.13;4974229;28;831;-59
2022/04/05 01:41:59;;;;;;;;;;;;;;;-147.50;100.00;69404.13;4976076;28;1211;-58
2022/04/05 01:44:27;;;;;;;;;;;;;;;-147.50;100.00;69404.13;4976085;28;843;-59
2022/04/05 01:46:54;;;;;;;;;;;;;;;-147.50;100.00;69404.13;4975920;28;1949;-59
2022/04/05 01:49:21;;;;;;;;;;;;;;;-147.50;100.00;69404.13;4976364;28;894;-59
2022/04/05 01:51:48;;;;;;;;;;;;;;;-147.50;100.00;69404.13;4976166;28;960;-59
2022/04/05 01:54:16;;;;;;;;;;;;;;;-147.50;100.00;69404.13;4976853;28;767;-59
2022/04/05 01:56:50;;;;;;;;;;;;;;;-147.50;100.00;69404.13;4976646;28;831;-58
2022/04/05 01:59:18;;;;;;;;;;;;;;;-147.50;100.00;69404.13;4975849;28;901;-59
2022/04/05 02:01:44;;;;;;;;;;;;;;;-147.50;100.00;69404.13;4958452;28;1232;-59
2022/04/05 02:04:12;;;;;;;;;;;;;;;-147.50;100.00;69404.13;4975921;28;868;-59
2022/04/05 02:06:38;;;;;;;;;;;;;;;-147.50;100.00;69404.13;4975730;28;1939;-59
2022/04/05 02:09:04;;;;;;;;;;;;;;;-147.50;100.00;69404.13;4958202;28;1189;-59
2022/04/05 02:11:32;;;;;;;;;;;;;;;-147.50;100.00;69404.13;4975609;28;851;-59
2022/04/05 02:13:58;;;;;;;;;;;;;;;-147.50;100.00;69404.13;4975610;28;819;-59
2022/04/05 02:16:26;;;;;;;;;;;;;;;-147.50;100.00;69404.13;4975557;28;836;-59
2022/04/05 02:18:53;;;;;;;;;;;;;;;-147.50;100.00;69404.13;4975664;28;891;-59
2022/04/05 02:21:19;;;;;;;;;;;;;;;-147.50;100.00;69404.13;4975549;28;823;-59
2022/04/05 02:23:46;;;;;;;;;;;;;;;-147.50;100.00;69404.13;4975481;28;878;-59
2022/04/05 02:26:13;;;;;;;;;;;;;;;-147.50;100.00;69404.13;4975230;28;1985;-59
2022/04/05 02:28:39;;;;;;;;;;;;;;;-147.50;100.00;69404.13;4975313;28;854;-59
2022/04/05 02:31:06;;;;;;;;;;;;;;;-147.50;100.00;69404.13;4975332;28;807;-59
2022/04/05 02:33:33;;;;;;;;;;;;;;;-147.50;100.00;69404.13;4975193;28;867;-59
2022/04/05 02:35:59;;;;;;;;;;;;;;;-147.50;100.00;69404.13;4975276;28;807;-59
2022/04/05 02:38:26;;;;;;;;;;;;;;;-147.50;100.00;69404.13;4975093;28;796;-59
2022/04/05 02:40:53;;;;;;;;;;;;;;;-147.50;100.00;69404.13;4975108;28;896;-59
2022/04/05 02:43:20;;;;;;;;;;;;;;;-147.50;100.00;69404.13;4975135;28;819;-59
2022/04/05 02:45:47;;;;;;;;;;;;;;;-147.50;100.00;69404.13;4974970;28;1952;-59
2022/04/05 02:48:13;;;;;;;;;;;;;;;-147.50;100.00;69404.13;4975274;28;863;-59
2022/04/05 02:50:39;;;;;;;;;;;;;;;-147.50;100.00;69404.13;4974648;28;840;-59
2022/04/05 02:53:06;;;;;;;;;;;;;;;-147.50;100.00;69404.13;4974909;28;910;-59
2022/04/05 02:55:33;;;;;;;;;;;;;;;-147.50;100.00;69404.13;4974781;28;913;-59
2022/04/05 02:57:59;;;;;;;;;;;;;;;-147.50;100.00;69404.13;4975021;28;852;-59
2022/04/05 03:00:27;;;;;;;;;;;;;;;-147.50;100.00;69404.13;4975149;28;807;-59
2022/04/05 03:02:54;;;;;;;;;;;;;;;-147.50;100.00;69404.13;4974608;28;973;-59
2022/04/05 03:05:22;;;;;;;;;;;;;;;-147.50;100.00;69404.13;4974735;28;866;-59
2022/04/05 03:07:48;;;;;;;;;;;;;;;-147.50;100.00;69404.13;4974480;28;1886;-59
2022/04/05 03:10:15;;;;;;;;;;;;;;;-147.50;100.00;69404.13;4974531;28;807;-59
2022/04/05 03:12:41;;;;;;;;;;;;;;;-147.50;100.00;69404.13;4974461;28;859;-59
2022/04/05 03:15:09;;;;;;;;;;;;;;;-147.50;100.00;69404.13;4974570;28;915;-59
2022/04/05 03:17:41;;;;;;;;;;;;;;;-147.50;100.00;69404.13;4957253;28;910;-59
2022/04/05 03:20:12;;;;;;;;;;;;;;;-147.50;100.00;69404.13;4974404;28;799;-59
2022/04/05 03:22:39;;;;;;;;;;;;;;;-147.50;100.00;69404.13;4974374;28;907;-59
2022/04/05 03:25:06;;;;;;;;;;;;;;;-147.50;100.00;69404.13;4974195;28;875;-59
2022/04/05 03:27:33;;;;;;;;;;;;;;;-147.50;100.00;69404.13;4974046;28;1975;-59
2022/04/05 03:29:58;;;;;;;;;;;;;;;-147.50;100.00;69404.13;4974303;28;804;-59
2022/04/05 03:32:25;;;;;;;;;;;;;;;-147.50;100.00;69404.13;4974155;28;823;-59
2022/04/05 03:34:52;;;;;;;;;;;;;;;-147.50;100.00;69404.13;4974172;28;823;-59
2022/04/05 03:37:19;;;;;;;;;;;;;;;-147.50;100.00;69404.13;4973877;28;982;-59
2022/04/05 03:39:46;;;;;;;;;;;;;;;-147.50;100.00;69404.13;4973880;28;895;-59
2022/04/05 03:42:13;;;;;;;;;;;;;;;-147.50;100.00;69404.13;4973967;28;847;-59
2022/04/05 03:44:40;;;;;;;;;;;;;;;-147.50;100.00;69404.13;4974025;28;824;-59
2022/04/05 03:47:06;;;;;;;;;;;;;;;-147.50;100.00;69404.13;4973808;28;1987;-59
2022/04/05 03:49:33;;;;;;;;;;;;;;;-147.50;100.00;69404.13;4973896;28;839;-59
2022/04/05 03:52:00;;;;;;;;;;;;;;;-147.50;100.00;69404.13;4973855;28;899;-59
2022/04/05 03:54:27;;;;;;;;;;;;;;;-147.50;100.00;69404.13;4973716;28;803;-59
2022/04/05 03:56:53;;;;;;;;;;;;;;;-147.50;100.00;69404.13;4973778;28;815;-59
2022/04/05 03:59:20;;;;;;;;;;;;;;;-147.50;100.00;69404.13;4973570;28;816;-59
2022/04/05 04:01:46;;;;;;;;;;;;;;;-147.50;100.00;69404.13;4973099;28;811;-59
2022/04/05 04:04:13;;;;;;;;;;;;;;;-147.50;100.00;69404.13;4973600;28;827;-59
2022/04/05 04:06:40;;;;;;;;;;;;;;;-147.50;100.00;69404.13;4973432;28;1945;-59
2022/04/05 04:09:06;;;;;;;;;;;;;;;-147.50;100.00;69404.13;4973830;28;917;-59
2022/04/05 04:11:32;;;;;;;;;;;;;;;-147.50;100.00;69404.13;4973452;28;815;-59
2022/04/05 04:13:59;;;;;;;;;;;;;;;-147.50;100.00;69404.13;4973401;28;842;-59
2022/04/05 04:16:25;;;;;;;;;;;;;;;-147.50;100.00;69404.13;4973558;28;875;-59
2022/04/05 04:18:52;;;;;;;;;;;;;;;-147.50;100.00;69404.13;4973236;28;912;-59
2022/04/05 04:21:19;;;;;;;;;;;;;;;-147.50;100.00;69404.13;4973374;28;859;-59
2022/04/05 04:23:46;;;;;;;;;;;;;;;-147.50;100.00;69404.13;4955941;28;1571;-59
2022/04/05 04:26:13;;;;;;;;;;;;;;;-147.50;100.00;69404.13;4972950;28;1977;-59
2022/04/05 04:28:39;;;;;;;;;;;;;;;-147.50;100.00;69404.13;4973248;28;1049;-59
2022/04/05 04:31:06;;;;;;;;;;;;;;;-147.50;100.00;69404.13;4973359;28;886;-59
2022/04/05 04:33:33;;;;;;;;;;;;;;;-147.50;100.00;69404.13;4973132;28;922;-59
2022/04/05 04:36:00;;;;;;;;;;;;;;;-147.50;100.00;69404.13;4973114;28;827;-59
2022/04/05 04:38:26;;;;;;;;;;;;;;;-147.50;100.00;69404.13;4973070;28;831;-59
2022/04/05 04:40:53;;;;;;;;;;;;;;;-147.50;100.00;69404.13;4973125;28;890;-59
2022/04/05 04:43:20;;;;;;;;;;;;;;;-147.50;100.00;69404.13;4973114;28;811;-59
2022/04/05 04:45:46;;;;;;;;;;;;;;;-147.50;100.00;69404.13;4973490;28;1953;-59
2022/04/05 04:48:13;;;;;;;;;;;;;;;-147.50;100.00;69404.13;4955752;28;1604;-59
2022/04/05 04:50:40;;;;;;;;;;;;;;;-147.50;100.00;69404.13;4973226;28;985;-59
2022/04/05 04:53:05;;;;;;;;;;;;;;;-147.50;100.00;69404.13;4972988;28;887;-59
2022/04/05 04:55:32;;;;;;;;;;;;;;;-147.50;100.00;69404.13;4972741;28;917;-59
2022/04/05 04:57:59;;;;;;;;;;;;;;;-147.50;100.00;69404.13;4972775;28;838;-59
2022/04/05 05:00:26;;;;;;;;;;;;;;;-147.50;100.00;69404.13;4972816;28;906;-59
2022/04/05 05:02:52;;;;;;;;;;;;;;;-147.50;100.00;69404.13;4972730;28;847;-59
2022/04/05 05:05:20;;;;;;;;;;;;;;;-147.50;100.00;69404.13;4972813;28;806;-59
2022/04/05 05:07:49;;;;;;;;;;;;;;;-147.50;100.00;69404.13;4972495;28;1895;-59
2022/04/05 05:10:16;;;;;;;;;;;;;;;-147.50;100.00;69404.13;4973272;28;873;-59
2022/04/05 05:12:43;;;;;;;;;;;;;;;-147.50;100.00;69404.13;4972962;28;815;-59
2022/04/05 05:15:15;;;;;;;;;;;;;;;-147.50;100.00;69404.13;4976118;28;878;-59
2022/04/05 05:17:42;;;;;;;;;;;;;;;-147.50;100.00;69404.13;4976551;28;945;-59
2022/04/05 05:20:10;;;;;;;;;;;;;;;-147.50;100.00;69404.13;4976576;28;885;-59
2022/04/05 05:22:37;;;;;;;;;;;;;;;-147.50;100.00;69404.13;4976780;28;942;-59
2022/04/05 05:25:04;;;;;;;;;;;;;;;-147.50;100.00;69404.13;4976537;28;1002;-59
2022/04/05 05:27:30;;;;;;;;;;;;;;;-147.50;100.00;69404.13;4976303;28;1910;-59
2022/04/05 05:29:56;;;;;;;;;;;;;;;-147.50;100.00;69404.13;4976507;28;819;-59
2022/04/05 05:32:23;;;;;;;;;;;;;;;-147.50;100.00;69404.13;4976443;28;811;-59
2022/04/05 05:34:49;;;;;;;;;;;;;;;-147.50;100.00;69404.13;4976620;28;895;-59
2022/04/05 05:37:15;;;;;;;;;;;;;;;-147.50;100.00;69404.13;4976402;28;819;-59
2022/04/05 05:39:42;;;;;;;;;;;;;;;-147.50;100.00;69404.13;4976554;28;1065;-59
2022/04/05 05:42:09;;;;;;;;;;;;;;;-147.50;100.00;69404.13;4976158;28;567;-59
2022/04/05 05:44:36;;;;;;;;;;;;;;;-147.50;100.00;69404.13;4976173;28;831;-59
2022/04/05 05:47:04;;;;;;;;;;;;;;;-147.50;100.00;69404.13;4976015;28;1890;-59
2022/04/05 05:49:32;;;;;;;;;;;;;;;-147.50;100.00;69404.13;4976212;28;852;-59
2022/04/05 05:51:58;;;;;;;;;;;;;;;-147.50;100.00;69404.13;4976394;28;820;-59
2022/04/05 05:54:25;;;;;;;;;;;;;;;-147.50;100.00;69404.13;4975934;28;870;-59
2022/04/05 05:56:52;;;;;;;;;;;;;;;-147.50;100.00;69404.13;4975973;28;827;-59
2022/04/05 05:59:18;;;;;;;;;;;;;;;-147.50;100.00;69404.13;4975782;28;919;-59
2022/04/05 06:01:45;;;;;;;;;;;;;;;-147.50;100.00;69404.13;4975887;28;819;-59
2022/04/05 06:04:14;;;;;;;;;;;;;;;-147.50;100.00;69404.13;4975858;28;824;-59
2022/04/05 06:06:40;;;;;;;;;;;;;;;-147.50;100.00;69404.13;4958288;28;1890;-59
2022/04/05 06:09:07;;;;;;;;;;;;;;;-147.50;100.00;69404.13;4975868;28;863;-59
2022/04/05 06:11:34;;;;;;;;;;;;;;;-147.50;100.00;69404.13;4975707;28;837;-59
2022/04/05 06:14:00;;;;;;;;;;;;;;;-147.50;100.00;69404.13;4975542;28;911;-59
2022/04/05 06:16:26;;;;;;;;;;;;;;;-147.50;100.00;69404.13;4975510;28;889;-59
2022/04/05 06:18:52;;;;;;;;;;;;;;;-147.50;100.00;69404.13;4976016;28;804;-59
2022/04/05 06:21:19;;;;;;;;;;;;;;;-147.50;100.00;69404.13;4958279;28;1624;-59
2022/04/05 06:23:46;;;;;;;;;;;;;;;-147.50;100.00;69404.13;4975629;28;966;-59
2022/04/05 06:26:12;;;;;;;;;;;;;;;-147.50;100.00;69404.13;4974855;28;1963;-59
2022/04/05 06:28:39;;;;;;;;;;;;;;;-147.50;100.00;69404.13;4975475;28;803;-59
2022/04/05 06:31:06;;;;;;;;;;;;;;;-147.50;100.00;69404.13;4975685;28;886;-59
2022/04/05 06:33:32;;;;;;;;;;;;;;;-147.50;100.00;69404.13;4975569;28;851;-59
2022/04/05 06:35:59;;;;;;;;;;;;;;;-147.50;100.00;69404.13;4975127;28;803;-59
2022/04/05 06:38:27;;;;;;;;;;;;;;;-147.50;100.00;69404.13;4975139;28;819;-59
2022/04/05 06:40:56;;;;;;;;;;;;;;;-147.50;100.00;69404.13;4975844;28;790;-59
2022/04/05 06:43:25;;;;;;;;;;;;;;;-147.50;100.00;69404.13;4975348;28;792;-59
2022/04/05 06:45:51;;;;;;;;;;;;;;;-147.50;100.00;69404.13;4974987;28;1955;-59
2022/04/05 06:48:19;;;;;;;;;;;;;;;-147.50;100.00;69404.13;4975070;28;803;-59
2022/04/05 06:50:46;;;;;;;;;;;;;;;-147.50;100.00;69404.13;4974805;28;915;-59
2022/04/05 06:53:13;;;;;;;;;;;;;;;-147.50;100.00;69404.13;4974853;28;927;-59
2022/04/05 06:55:40;;;;;;;;;;;;;;;-147.50;100.00;69404.13;4974930;28;1025;-59
2022/04/05 06:58:08;;;;;;;;;;;;;;;-147.50;100.00;69404.13;4975162;28;855;-59
2022/04/05 07:00:35;;;;;;;;;;;;;;;-147.50;100.00;69404.13;4974679;28;945;-59
2022/04/05 07:03:02;;;;;;;;;;;;;;;-147.50;100.00;69404.13;4974668;28;911;-59
2022/04/05 07:05:29;;;;;;;;;;;;;;;-147.50;100.00;69404.13;4974482;28;942;-59
2022/04/05 07:07:56;;;;;;;;;;;;;;;-147.50;100.00;69404.13;4974684;28;1945;-59
2022/04/05 07:10:23;;;;;;;;;;;;;;;-147.50;100.00;69404.13;4974644;28;819;-60
2022/04/05 07:12:50;;;;;;;;;;;;;;;-147.50;100.00;69404.13;4974480;28;962;-59
2022/04/05 07:15:17;;;;;;;;;;;;;;;-147.50;100.00;69404.13;4974585;28;831;-59
2022/04/05 07:17:44;;;;;;;;;;;;;;;-147.50;100.00;69404.13;4974456;28;855;-60
2022/04/05 07:20:10;;;;;;;;;;;;;;;-147.50;100.00;69404.13;4974408;28;879;-59
2022/04/05 07:22:43;;;;;;;;;;;;;;;-147.50;100.00;69404.13;4974420;28;815;-59
2022/04/05 07:25:10;;;;;;;;;;;;;;;-147.50;100.00;69404.13;4974532;28;895;-59
2022/04/05 07:27:37;;;;;;;;;;;;;;;-147.50;100.00;69404.13;4974008;28;1922;-59
2022/04/05 07:30:04;;;;;;;;;;;;;;;-147.50;100.00;69404.13;4974250;28;855;-59
2022/04/05 07:32:37;;;;;;;;;;;;;;;-147.50;100.00;69404.13;4974238;28;910;-59
2022/04/05 07:35:04;;;;;;;;;;;;;;;-147.50;100.00;69404.13;4974013;28;827;-59
2022/04/05 07:37:31;;;;;;;;;;;;;;;-147.50;100.00;69404.13;4973459;28;812;-59
2022/04/05 07:40:03;;;;;;;;;;;;;;;-147.50;100.00;69404.13;4974067;28;800;-59
2022/04/05 07:42:29;;;;;;;;;;;;;;;-147.50;100.00;69404.13;4974194;28;791;-59
2022/04/05 07:44:58;;;;;;;;;;;;;;;-147.50;100.00;69404.13;4956391;28;916;-59
2022/04/05 07:47:24;;;;;;;;;;;;;;;-147.50;100.00;69404.13;4956623;28;1946;-59
2022/04/05 07:49:50;;;;;;;;;;;;;;;-147.50;100.00;69404.13;4974011;28;1264;-59
2022/04/05 07:52:17;;;;;;;;;;;;;;;-147.50;100.00;69404.13;4973877;28;819;-59
2022/04/05 07:57:08;;;;;;;;;;;;;;;14.80;45.95;99582.13;5087926;27;1855778;-55
2022/04/05 07:59:34;;;;;;;;;;;;;;;15.09;45.20;99578.63;5150756;27;960;-55
2022/04/05 08:02:01;;;;;;;;;;;;;;;15.27;44.79;99572.56;5150567;27;904;-55
2022/04/05 08:04:27;;;;;;;;;;;;;;;15.40;44.49;99567.03;5150000;27;913;-55
2022/04/05 08:06:53;;;;;;;;;;;;;;;15.06;44.68;99560.00;5132244;27;900;-56
2022/04/05 08:09:18;;;;;;;;;;;;;;;14.75;45.94;99571.56;5150439;27;949;-55
2022/04/05 08:11:45;;;;;;;;;;;;;;;15.08;44.36;99555.59;5150100;27;806;-55
2022/04/05 08:14:11;;;;;;;;;;;;;;;15.85;42.42;99557.78;5149829;27;806;-55
2022/04/05 08:16:41;;;;;;;;;;;;;;;15.52;43.65;99549.56;5149578;27;1909;-55
2022/04/05 08:19:09;;;;;;;;;;;;;;;15.08;44.28;99547.22;5149853;27;952;-55
2022/04/05 08:21:36;;;;;;;;;;;;;;;15.55;44.06;99545.88;5150040;27;1244;-55
2022/04/05 08:24:04;;;;;;;;;;;;;;;16.61;40.98;99543.00;5150100;27;972;-55
2022/04/05 08:26:30;;;;;;;;;;;;;;;16.74;40.91;99542.97;5150288;27;929;-56
2022/04/05 08:28:58;;;;;;;;;;;;;;;16.26;42.13;99539.41;5149930;27;921;-55
2022/04/05 08:31:23;;;;;;;;;;;;;;;16.75;41.34;99533.38;5149893;27;889;-56
2022/04/05 08:33:50;;;;;;;;;;;;;;;17.40;42.86;99522.72;5149684;27;946;-54
2022/04/05 08:36:17;;;;;;;;;;;;;;;17.30;39.78;99536.63;5149727;27;1913;-56
2022/04/05 08:38:44;;;;;;;;;;;;;;;16.45;41.15;99523.59;5149743;27;858;-56
2022/04/05 08:41:12;;;;;;;;;;;;;;;16.44;41.10;99525.63;5149790;27;829;-55
2022/04/05 08:43:42;;;;;;;;;;;;;;;16.98;41.81;99512.63;5149640;27;929;-55
2022/04/05 08:46:10;;;;;;;;;;;;;;;17.57;40.15;99524.06;5149910;27;853;-54
2022/04/05 08:48:38;;;;;;;;;;;;;;;17.30;39.18;99519.88;5149763;27;901;-55
2022/04/05 08:51:05;;;;;;;;;;;;;;;16.92;39.50;99515.25;5149657;27;813;-55
2022/04/05 08:53:33;;;;;;;;;;;;;;;17.46;41.13;99515.31;5149468;27;944;-55
2022/04/05 08:56:01;;;;;;;;;;;;;;;17.39;39.74;99507.97;5142666;27;1889;-56
2022/04/05 08:58:28;;;;;;;;;;;;;;;17.44;38.94;99501.00;5129074;28;869;-55
2022/04/05 09:00:55;;;;;;;;;;;;;;;17.12;39.08;99500.19;5128871;28;865;-56
2022/04/05 09:03:22;;;;;;;;;;;;;;;16.21;41.25;99495.31;5128816;28;813;-56
2022/04/05 09:05:50;;;;;;;;;;;;;;;16.07;42.17;99485.44;5128779;28;889;-55
2022/04/05 09:08:30;;;;;;;;;;;;;;;15.95;41.75;99481.41;5116207;28;866;-56
2022/04/05 09:11:05;;;;;;;;;;;;;;;14.92;44.51;99482.50;5114734;28;918;-55
2022/04/05 09:13:32;;;;;;;;;;;;;;;14.11;45.88;99486.94;5115084;28;932;-55
2022/04/05 09:15:59;;;;;;;;;;;;;;;14.08;46.71;99481.03;5096559;28;1963;-55
2022/04/05 09:18:28;;;;;;;;;;;;;;;14.24;46.94;99485.78;5114810;28;1189;-55
2022/04/05 09:20:55;;;;;;;;;;;;;;;14.49;47.57;99468.47;5114627;28;865;-56
2022/04/05 09:23:23;;;;;;;;;;;;;;;14.54;46.82;99469.16;5114600;28;889;-56
2022/04/05 09:25:54;;;;;;;;;;;;;;;14.33;47.38;99467.72;5114566;28;900;-55
2022/04/05 09:28:34;;;;;;;;;;;;;;;14.81;45.92;99466.09;5114477;28;921;-55
2022/04/05 09:31:03;;;;;;;;;;;;;;;15.68;44.94;99459.53;5114627;28;940;-55
2022/04/05 09:33:31;;;;;;;;;;;;;;;15.96;43.75;99448.75;5114185;28;929;-56
2022/04/05 09:36:03;;;;;;;;;;;;;;;15.74;43.86;99451.44;5114222;28;1949;-55
2022/04/05 09:38:30;;;;;;;;;;;;;;;15.70;43.87;99446.75;5114324;28;834;-55
2022/04/05 09:41:17;;;;;;;;;;;;;;;15.46;43.53;99440.72;5096048;28;933;-56
2022/04/05 09:43:53;;;;;;;;;;;;;;;15.66;44.36;99436.91;5114087;28;2050;-56
2022/04/05 09:46:19;;;;;;;;;;;;;;;15.25;43.72;99449.72;5114117;28;985;-55
2022/04/05 09:48:46;;;;;;;;;;;;;;;15.21;45.44;99443.47;5114003;28;901;-55
2022/04/05 09:51:17;;;;;;;;;;;;;;;14.82;44.19;99439.81;5114007;28;910;-56
2022/04/05 09:53:44;;;;;;;;;;;;;;;14.97;44.61;99434.63;5113929;28;858;-55
2022/04/05 09:56:17;;;;;;;;;;;;;;;15.39;43.79;99431.81;5113718;28;1873;-55
2022/04/05 10:27:05;;;;;;;;;;;;;;;16.84;40.09;99395.94;5029908;28;1878;-56
2022/04/05 10:29:31;;;;;;;;;;;;;;;16.77;38.46;99393.38;5033092;28;928;-55
2022/04/05 10:31:58;;;;;;;;;;;;;;;17.13;39.35;99393.63;5032858;28;868;-56
2022/04/05 10:34:26;;;;;;;;;;;;;;;16.24;37.23;99385.69;5032903;28;859;-55
2022/04/05 10:37:06;;;;;;;;;;;;;;;15.68;39.53;99387.13;5032691;28;1913;-55
2022/04/05 10:39:33;;;;;;;;;;;;;;;15.29;40.19;99378.78;5032718;28;877;-56
2022/04/05 10:42:09;;;;;;;;;;;;;;;15.67;39.79;99377.22;5032613;28;827;-55
2022/04/05 10:44:39;;;;;;;;;;;;;;;16.24;40.42;99368.97;5032669;28;786;-56
2022/04/05 10:47:06;;;;;;;;;;;;;;;16.23;38.13;99368.16;5032669;28;845;-56
2022/04/05 10:49:43;;;;;;;;;;;;;;;16.21;39.18;99367.84;5032409;28;928;-56
2022/04/05 10:52:12;;;;;;;;;;;;;;;16.22;39.61;99357.50;5033100;28;806;-56
2022/04/05 10:54:40;;;;;;;;;;;;;;;16.67;39.83;99364.63;5032853;28;902;-55
2022/04/05 10:57:17;;;;;;;;;;;;;;;16.84;39.05;99354.84;5030947;28;1874;-56
2022/04/05 10:59:54;;;;;;;;;;;;;;;16.67;37.97;99350.69;5030977;28;1651;-56
2022/04/05 11:02:30;;;;;;;;;;;;;;;16.55;37.34;99346.72;5032526;28;810;-56
2022/04/05 11:05:03;;;;;;;;;;;;;;;17.12;37.38;99341.03;5032455;28;893;-56
2022/04/05 11:07:50;;;;;;;;;;;;;;;17.80;35.78;99337.53;5032098;28;890;-56
2022/04/05 11:10:18;;;;;;;;;;;;;;;18.30;35.83;99335.38;5032001;28;1062;-55
2022/04/05 11:12:45;;;;;;;;;;;;;;;18.27;35.99;99333.53;5032092;28;917;-56
2022/04/05 11:15:14;;;;;;;;;;;;;;;17.67;36.83;99326.47;5031981;28;1891;-56
2022/04/05 11:17:42;;;;;;;;;;;;;;;17.23;35.85;99330.22;5031963;28;843;-56
2022/04/05 11:20:11;;;;;;;;;;;;;;;16.30;35.19;99330.88;5031829;28;938;-56
2022/04/05 11:22:38;;;;;;;;;;;;;;;15.75;34.87;99327.66;5032544;28;771;-56
2022/04/05 11:25:09;;;;;;;;;;;;;;;16.00;34.59;99318.41;5032197;28;919;-56
2022/04/05 11:27:44;;;;;;;;;;;;;;;16.53;35.89;99313.69;5030451;28;1375;-56
2022/04/05 11:30:26;;;;;;;;;;;;;;;16.72;37.78;99314.59;5030350;28;854;-56
2022/04/05 11:33:12;;;;;;;;;;;;;;;17.01;37.21;99305.16;5031817;28;795;-56
2022/04/05 11:35:49;;;;;;;;;;;;;;;17.64;36.62;99291.06;5031645;28;1910;-56
2022/04/05 11:38:18;;;;;;;;;;;;;;;17.52;34.44;99292.75;5031742;28;873;-56
2022/04/05 11:40:49;;;;;;;;;;;;;;;17.28;35.43;99293.31;5031731;28;865;-56
2022/04/05 11:43:21;;;;;;;;;;;;;;;16.96;34.99;99282.63;5032210;28;938;-56
2022/04/05 11:45:48;;;;;;;;;;;;;;;16.76;35.74;99280.97;5031546;28;950;-56
2022/04/05 11:48:21;;;;;;;;;;;;;;;16.66;36.28;99282.97;5031637;28;899;-57
2022/04/05 11:50:49;;;;;;;;;;;;;;;17.10;37.44;99273.72;5031592;28;858;-56
2022/04/05 11:53:24;;;;;;;;;;;;;;;17.66;34.58;99266.22;5031524;28;853;-56
2022/04/05 11:56:10;;;;;;;;;;;;;;;18.09;35.64;99258.81;5031474;28;1943;-56
2022/04/05 11:58:38;;;;;;;;;;;;;;;18.05;33.46;99260.97;5031271;28;890;-57
2022/04/05 12:01:08;;;;;;;;;;;;;;;17.85;33.88;99250.28;5031494;28;996;-56
2022/04/05 12:03:42;;;;;;;;;;;;;;;18.32;32.52;99243.38;5031665;28;838;-56
2022/04/05 12:06:09;;;;;;;;;;;;;;;18.50;33.54;99239.78;5031356;28;842;-56
2022/04/05 12:08:35;;;;;;;;;;;;;;;18.49;33.33;99243.81;5031632;28;890;-56
2022/04/05 12:11:02;;;;;;;;;;;;;;;18.68;33.23;99233.34;5031408;28;858;-56
2022/04/05 12:13:29;;;;;;;;;;;;;;;18.43;31.62;99235.28;5031410;28;981;-57
2022/04/05 12:16:00;;;;;;;;;;;;;;;18.63;31.35;99229.16;5031198;28;1882;-56
2022/04/05 12:18:28;;;;;;;;;;;;;;;18.57;31.84;99225.47;5030188;28;842;-56
2022/04/05 12:21:02;;;;;;;;;;;;;;;18.44;30.87;99219.28;5031521;28;858;-57
2022/04/05 12:23:30;;;;;;;;;;;;;;;18.32;31.65;99218.97;5031592;28;869;-56
2022/04/05 12:26:11;;;;;;;;;;;;;;;18.45;30.56;99209.63;5030978;28;1230;-56
2022/04/05 12:28:38;;;;;;;;;;;;;;;18.66;31.14;99213.44;5031490;28;908;-56
2022/04/05 12:31:13;;;;;;;;;;;;;;;18.73;31.85;99205.50;5031185;28;906;-56
2022/04/05 12:33:41;;;;;;;;;;;;;;;18.96;30.19;99206.03;5031734;28;806;-56
2022/04/05 12:36:08;;;;;;;;;;;;;;;18.55;30.30;99203.53;5031537;28;1965;-56
2022/04/05 12:38:35;;;;;;;;;;;;;;;18.75;32.09;99202.19;5031465;28;876;-56
2022/04/05 12:41:02;;;;;;;;;;;;;;;19.25;31.25;99187.81;5031388;28;929;-56
2022/04/05 12:43:29;;;;;;;;;;;;;;;19.79;29.45;99183.81;5034153;28;953;-56
2022/04/05 12:46:07;;;;;;;;;;;;;;;19.67;31.85;99187.66;5035173;28;959;-56
2022/04/05 12:48:33;;;;;;;;;;;;;;;19.44;31.89;99178.03;5034810;28;806;-57
2022/04/05 12:51:00;;;;;;;;;;;;;;;19.71;30.67;99174.25;5034819;28;842;-56
2022/04/05 12:53:28;;;;;;;;;;;;;;;19.70;29.96;99172.72;5034631;28;897;-56
2022/04/05 12:55:55;;;;;;;;;;;;;;;20.27;30.57;99168.88;5034667;28;1933;-57
2022/04/05 12:58:41;;;;;;;;;;;;;;;19.85;29.84;99174.75;5034626;28;846;-57
2022/04/05 13:01:18;;;;;;;;;;;;;;;19.37;30.55;99173.56;5034625;28;862;-56
2022/04/05 13:03:45;;;;;;;;;;;;;;;19.21;30.80;99170.41;5034614;28;866;-56
2022/04/05 13:06:21;;;;;;;;;;;;;;;19.10;31.50;99168.94;5034417;28;830;-56
2022/04/05 13:08:49;;;;;;;;;;;;;;;19.23;31.71;99165.88;5034368;28;898;-56
2022/04/05 13:11:26;;;;;;;;;;;;;;;19.34;30.05;99160.50;5034309;28;923;-56
2022/04/05 13:14:02;;;;;;;;;;;;;;;19.93;29.99;99159.13;5034390;28;818;-56
2022/04/05 13:16:29;;;;;;;;;;;;;;;20.50;30.57;99144.72;5034063;28;1933;-56
2022/04/05 13:19:05;;;;;;;;;;;;;;;20.22;30.12;99151.94;5034449;28;893;-57
2022/04/05 13:21:39;;;;;;;;;;;;;;;19.54;30.74;99151.50;5034418;28;881;-56